Time;durP1;ratioP1;P1;durP2;ratioP2;P2;SDS_P1;SDS_P2;PMS_P1;PMS_P2;Temp;Humidity;BMP_temperature;BMP_pressure;BME280_temperature;BME280_humidity;BME280_pressure;Samples;Min_cycle;Max_cycle;Signal;HPM_P1;HPM_P2
2020/12/08 00:00:26;;;;;;;;;;;;;;;21.47;35.81;99713.56;3111235;28;115832;-57
2020/12/08 00:01:58;;;;;;;;;;;;;;;21.45;36.06;99720.66;3102944;28;116162;-57
2020/12/08 00:03:29;;;;;;;;;;;;;;;21.43;36.11;99711.78;3104747;28;115513;-57
2020/12/08 00:05:00;;;;;;;;;;;;;;;21.41;35.93;99714.91;3111896;27;115371;-58
2020/12/08 00:06:31;;;;;;;;;;;;;;;21.39;35.82;99713.63;3110972;27;114794;-57
2020/12/08 00:08:05;;;;;;;;;;;;;;;21.36;36.20;99717.09;3109690;28;115456;-57
2020/12/08 00:09:39;;;;;;;;;;;;;;;21.35;35.95;99719.09;3109914;28;116147;-57
2020/12/08 00:11:16;;;;;;;;;;;;;;;21.32;35.94;99721.78;3109539;28;115270;-57
2020/12/08 00:12:51;;;;;;;;;;;;;;;21.30;36.26;99722.94;3133097;27;115255;-57
2020/12/08 00:14:22;;;;;;;;;;;;;;;21.28;36.22;99716.03;3122096;27;115956;-57
2020/12/08 00:15:53;;;;;;;;;;;;;;;21.26;36.27;99723.97;3132154;27;114824;-58
2020/12/08 00:17:24;;;;;;;;;;;;;;;21.23;36.26;99717.06;3136576;27;114801;-58
2020/12/08 00:18:56;;;;;;;;;;;;;;;21.20;36.21;99717.75;3139376;27;115717;-57
2020/12/08 00:20:27;;;;;;;;;;;;;;;21.20;36.07;99723.38;3137000;27;114105;-57
2020/12/08 00:21:58;;;;;;;;;;;;;;;21.19;36.10;99718.91;3129985;27;113899;-57
2020/12/08 00:23:29;;;;;;;;;;;;;;;21.16;36.30;99716.78;3135704;27;114303;-57
2020/12/08 00:25:01;;;;;;;;;;;;;;;21.15;36.42;99723.56;3137365;27;114389;-58
2020/12/08 00:26:32;;;;;;;;;;;;;;;21.14;36.20;99721.09;3134065;27;114153;-57
2020/12/08 00:28:03;;;;;;;;;;;;;;;21.10;36.25;99720.94;3135612;27;113920;-57
2020/12/08 00:29:35;;;;;;;;;;;;;;;21.08;36.54;99717.63;3135665;27;114047;-57
2020/12/08 00:31:06;;;;;;;;;;;;;;;21.06;36.44;99725.59;3136542;27;113864;-57
2020/12/08 00:32:38;;;;;;;;;;;;;;;21.04;36.41;99716.69;3129187;27;114417;-57
2020/12/08 00:34:10;;;;;;;;;;;;;;;21.02;36.40;99721.84;3129819;27;114310;-57
2020/12/08 00:35:41;;;;;;;;;;;;;;;21.01;36.44;99716.53;3123935;27;114755;-57
2020/12/08 00:37:12;;;;;;;;;;;;;;;20.99;36.48;99725.31;3128113;27;114135;-57
2020/12/08 00:38:44;;;;;;;;;;;;;;;20.97;36.41;99722.03;3132223;27;115105;-57
2020/12/08 00:40:15;;;;;;;;;;;;;;;20.95;36.73;99724.34;3132096;27;114909;-57
2020/12/08 00:41:47;;;;;;;;;;;;;;;20.93;36.52;99721.06;3134133;27;113892;-56
2020/12/08 00:43:18;;;;;;;;;;;;;;;20.91;36.77;99725.38;3128675;27;115178;-57
2020/12/08 00:44:49;;;;;;;;;;;;;;;20.89;36.81;99716.47;3136412;27;115835;-57
2020/12/08 00:46:20;;;;;;;;;;;;;;;20.88;36.82;99720.44;3135670;27;115237;-57
2020/12/08 00:47:52;;;;;;;;;;;;;;;20.85;36.80;99719.94;3134822;27;115191;-57
2020/12/08 00:49:23;;;;;;;;;;;;;;;20.84;36.84;99723.13;3135396;27;115225;-57
2020/12/08 00:50:54;;;;;;;;;;;;;;;20.82;36.79;99719.81;3135757;27;114275;-58
2020/12/08 00:52:25;;;;;;;;;;;;;;;20.81;37.12;99718.16;3135566;27;115115;-58
2020/12/08 00:54:09;;;;;;;;;;;;;;;20.78;37.18;99718.84;3135435;27;114358;-58
2020/12/08 00:55:41;;;;;;;;;;;;;;;20.76;37.02;99727.59;3135623;27;114139;-58
2020/12/08 00:57:12;;;;;;;;;;;;;;;20.76;36.83;99723.97;3135453;27;115185;-57
2020/12/08 00:58:43;;;;;;;;;;;;;;;20.74;37.00;99724.31;3134084;27;114284;-61
2020/12/08 01:00:14;;;;;;;;;;;;;;;20.73;36.87;99725.47;3136368;27;115349;-58
2020/12/08 01:01:46;;;;;;;;;;;;;;;20.71;36.98;99713.78;3136085;27;115135;-60
2020/12/08 01:03:17;;;;;;;;;;;;;;;20.68;36.97;99720.06;3138932;27;115500;-60
2020/12/08 01:04:48;;;;;;;;;;;;;;;20.68;36.96;99710.81;3136180;27;116042;-61
2020/12/08 01:06:19;;;;;;;;;;;;;;;20.65;36.96;99717.13;3135508;27;115990;-61
2020/12/08 01:07:50;;;;;;;;;;;;;;;20.63;37.15;99713.81;3135482;27;115845;-60
2020/12/08 01:09:21;;;;;;;;;;;;;;;20.61;36.89;99716.97;3122328;27;114647;-61
2020/12/08 01:10:53;;;;;;;;;;;;;;;20.58;36.86;99717.63;3131450;27;114284;-60
2020/12/08 01:12:24;;;;;;;;;;;;;;;20.56;37.28;99724.75;3135048;27;114895;-60
2020/12/08 01:13:55;;;;;;;;;;;;;;;20.55;37.15;99721.13;3133851;27;114776;-60
2020/12/08 01:15:27;;;;;;;;;;;;;;;20.52;37.28;99719.00;3121769;27;114604;-60
2020/12/08 01:16:58;;;;;;;;;;;;;;;20.49;37.29;99719.66;3118400;27;116506;-61
2020/12/08 01:18:30;;;;;;;;;;;;;;;20.49;37.50;99716.06;3130991;27;115765;-61
2020/12/08 01:20:03;;;;;;;;;;;;;;;20.44;37.46;99714.28;3136301;27;115880;-60
2020/12/08 01:21:34;;;;;;;;;;;;;;;20.43;37.37;99715.44;3135448;27;114807;-60
2020/12/08 01:23:06;;;;;;;;;;;;;;;20.42;37.41;99722.19;3134465;27;115705;-59
2020/12/08 01:24:37;;;;;;;;;;;;;;;20.40;37.45;99721.69;3125555;27;114939;-59
2020/12/08 01:26:08;;;;;;;;;;;;;;;20.37;37.50;99713.97;3119567;27;114333;-60
2020/12/08 01:27:39;;;;;;;;;;;;;;;20.35;37.42;99730.31;3131823;27;114572;-60
2020/12/08 01:29:11;;;;;;;;;;;;;;;20.33;37.34;99724.22;3130609;27;114098;-60
2020/12/08 01:30:43;;;;;;;;;;;;;;;20.31;37.50;99720.91;3121772;27;114229;-60
2020/12/08 01:32:15;;;;;;;;;;;;;;;20.30;37.25;99725.72;3126395;27;114115;-60
2020/12/08 01:33:46;;;;;;;;;;;;;;;20.29;37.57;99724.03;3130878;27;114267;-58
2020/12/08 01:35:20;;;;;;;;;;;;;;;20.27;37.40;99731.13;3135900;27;113926;-60
2020/12/08 01:36:51;;;;;;;;;;;;;;;20.25;37.26;99725.06;3121312;27;114157;-60
2020/12/08 01:38:22;;;;;;;;;;;;;;;20.24;37.65;99734.63;3117243;27;114707;-60
2020/12/08 01:39:54;;;;;;;;;;;;;;;20.20;37.59;99728.03;3131279;27;114350;-60
2020/12/08 01:41:25;;;;;;;;;;;;;;;20.18;37.37;99727.53;3133965;27;113782;-60
2020/12/08 01:42:57;;;;;;;;;;;;;;;20.16;37.27;99733.50;3116875;27;114691;-60
2020/12/08 01:44:28;;;;;;;;;;;;;;;20.14;37.49;99737.78;3112980;27;114140;-60
2020/12/08 01:45:59;;;;;;;;;;;;;;;20.13;37.62;99742.56;3133159;27;115536;-60
2020/12/08 01:47:32;;;;;;;;;;;;;;;20.10;37.68;99742.41;3132712;27;115198;-60
2020/12/08 01:49:04;;;;;;;;;;;;;;;20.12;37.50;99743.75;3134106;27;114552;-60
2020/12/08 01:50:35;;;;;;;;;;;;;;;20.11;37.75;99749.69;3135032;27;115440;-60
2020/12/08 01:52:06;;;;;;;;;;;;;;;20.09;37.46;99752.81;3132872;27;114124;-59
2020/12/08 01:53:37;;;;;;;;;;;;;;;20.07;37.65;99745.91;3133002;27;115234;-60
2020/12/08 01:55:12;;;;;;;;;;;;;;;20.05;37.71;99748.19;3122093;27;115007;-59
2020/12/08 01:56:43;;;;;;;;;;;;;;;20.02;37.98;99755.31;3130495;27;114598;-59
2020/12/08 01:58:20;;;;;;;;;;;;;;;20.00;37.73;99757.63;3133468;27;115429;-59
2020/12/08 01:59:51;;;;;;;;;;;;;;;19.98;38.08;99751.53;3135725;27;115427;-60
2020/12/08 02:01:23;;;;;;;;;;;;;;;19.96;37.93;99751.84;3134820;27;114614;-59
2020/12/08 02:02:55;;;;;;;;;;;;;;;19.94;37.78;99753.38;3135478;27;115375;-60
2020/12/08 02:04:26;;;;;;;;;;;;;;;19.91;37.75;99746.44;3135201;27;114108;-60
2020/12/08 02:05:57;;;;;;;;;;;;;;;19.90;37.76;99750.38;3135579;27;115444;-57
2020/12/08 02:07:29;;;;;;;;;;;;;;;19.89;38.04;99743.16;3138285;27;114537;-57
2020/12/08 02:09:00;;;;;;;;;;;;;;;19.88;37.96;99747.09;3124766;27;117865;-56
2020/12/08 02:10:32;;;;;;;;;;;;;;;19.86;38.16;99749.41;3131428;27;114575;-57
2020/12/08 02:12:04;;;;;;;;;;;;;;;19.84;38.05;99759.31;3134538;27;115919;-57
2020/12/08 02:13:35;;;;;;;;;;;;;;;19.83;38.26;99754.84;3123498;27;116063;-57
2020/12/08 02:15:06;;;;;;;;;;;;;;;19.81;38.35;99757.97;3127142;27;115951;-57
2020/12/08 02:16:37;;;;;;;;;;;;;;;19.80;38.33;99752.72;3135165;27;114841;-57
2020/12/08 02:18:10;;;;;;;;;;;;;;;19.78;38.36;99761.47;3133271;27;114161;-56
2020/12/08 02:19:43;;;;;;;;;;;;;;;19.77;38.50;99758.97;3136299;27;115707;-56
2020/12/08 02:21:15;;;;;;;;;;;;;;;19.75;38.60;99764.13;3122230;27;114687;-56
2020/12/08 02:22:46;;;;;;;;;;;;;;;19.73;38.62;99761.63;3133691;27;115873;-56
2020/12/08 02:24:18;;;;;;;;;;;;;;;19.73;38.34;99758.81;3135275;27;115738;-57
2020/12/08 02:25:53;;;;;;;;;;;;;;;19.71;38.45;99755.56;3134670;27;115684;-57
2020/12/08 02:27:25;;;;;;;;;;;;;;;19.70;38.69;99761.47;3134035;27;114667;-57
2020/12/08 02:28:56;;;;;;;;;;;;;;;19.68;38.69;99764.59;3132697;27;115255;-57
2020/12/08 02:30:27;;;;;;;;;;;;;;;19.66;38.73;99766.94;3138079;27;116116;-57
2020/12/08 02:31:58;;;;;;;;;;;;;;;19.66;38.75;99768.91;3134858;27;114063;-57
2020/12/08 02:33:30;;;;;;;;;;;;;;;19.64;38.74;99769.22;3121100;27;114145;-57
2020/12/08 02:35:05;;;;;;;;;;;;;;;19.62;38.60;99765.94;3131212;27;114048;-57
2020/12/08 02:36:36;;;;;;;;;;;;;;;19.62;38.82;99771.56;3134958;27;114370;-57
2020/12/08 02:38:08;;;;;;;;;;;;;;;19.59;38.69;99760.16;3133316;27;114615;-57
2020/12/08 02:39:40;;;;;;;;;;;;;;;19.57;38.88;99754.06;3135293;27;114357;-57
2020/12/08 02:41:11;;;;;;;;;;;;;;;19.57;38.70;99759.69;3134725;27;113938;-57
2020/12/08 02:42:53;;;;;;;;;;;;;;;19.54;38.80;99759.19;3131182;27;114593;-56
2020/12/08 02:44:48;;;;;;;;;;;;;;;19.53;38.73;99765.13;3116227;27;115064;-56
2020/12/08 02:46:43;;;;;;;;;;;;;;;19.52;38.84;99766.28;3134671;27;114242;-56
2020/12/08 02:48:29;;;;;;;;;;;;;;;19.49;39.03;99764.13;3133898;27;113911;-56
2020/12/08 02:50:07;;;;;;;;;;;;;;;19.49;39.02;99769.72;3121277;27;114191;-56
2020/12/08 02:51:38;;;;;;;;;;;;;;;19.47;39.02;99772.88;3130973;27;114199;-56
2020/12/08 02:53:09;;;;;;;;;;;;;;;19.47;38.84;99767.28;3137509;27;114095;-56
2020/12/08 02:54:41;;;;;;;;;;;;;;;19.45;39.11;99766.75;3135070;27;114451;-56
2020/12/08 02:56:12;;;;;;;;;;;;;;;19.44;38.98;99769.91;3135366;27;115813;-56
2020/12/08 02:57:43;;;;;;;;;;;;;;;19.43;39.08;99766.28;3131316;27;115604;-56
2020/12/08 02:59:14;;;;;;;;;;;;;;;19.43;38.79;99768.22;3130221;27;115437;-56
2020/12/08 03:00:45;;;;;;;;;;;;;;;19.41;38.99;99762.13;3133687;27;114480;-56
2020/12/08 03:02:17;;;;;;;;;;;;;;;19.40;39.22;99764.09;3133686;27;115198;-56
2020/12/08 03:03:48;;;;;;;;;;;;;;;19.39;39.09;99767.25;3129621;27;115240;-56
2020/12/08 03:05:19;;;;;;;;;;;;;;;19.38;39.24;99771.19;3135093;27;115170;-56
2020/12/08 03:06:50;;;;;;;;;;;;;;;19.37;39.19;99770.38;3120953;27;115255;-56
2020/12/08 03:08:21;;;;;;;;;;;;;;;19.35;39.02;99777.47;3129150;27;114865;-56
2020/12/08 03:09:53;;;;;;;;;;;;;;;19.33;39.36;99783.38;3133447;27;115169;-56
2020/12/08 03:11:31;;;;;;;;;;;;;;;19.33;39.20;99776.94;3115398;27;115455;-56
2020/12/08 03:13:03;;;;;;;;;;;;;;;19.31;39.39;99779.25;3119094;27;114048;-56
2020/12/08 03:14:34;;;;;;;;;;;;;;;19.30;39.42;99777.63;3132140;27;114488;-56
2020/12/08 03:16:05;;;;;;;;;;;;;;;19.30;39.43;99783.22;3134080;27;116169;-56
2020/12/08 03:17:37;;;;;;;;;;;;;;;19.28;39.59;99788.31;3133020;27;115029;-56
2020/12/08 03:19:09;;;;;;;;;;;;;;;19.27;39.31;99784.69;3132360;27;116398;-57
2020/12/08 03:20:40;;;;;;;;;;;;;;;19.27;39.48;99783.84;3134609;27;116060;-57
2020/12/08 03:22:11;;;;;;;;;;;;;;;19.25;39.39;99783.38;3120114;27;115825;-56
2020/12/08 03:23:42;;;;;;;;;;;;;;;19.22;39.55;99793.25;3129136;27;115303;-56
2020/12/08 03:25:14;;;;;;;;;;;;;;;19.21;39.56;99794.41;3131881;27;116524;-56
2020/12/08 03:26:45;;;;;;;;;;;;;;;19.19;39.59;99802.31;3119821;27;114630;-55
2020/12/08 03:28:16;;;;;;;;;;;;;;;19.20;39.72;99803.13;3127838;27;115864;-56
2020/12/08 03:29:48;;;;;;;;;;;;;;;19.19;39.69;99804.28;3134560;27;114733;-56
2020/12/08 03:31:20;;;;;;;;;;;;;;;19.19;39.73;99801.47;3132138;27;115179;-55
2020/12/08 03:32:53;;;;;;;;;;;;;;;19.17;39.72;99796.19;3134007;27;113868;-55
2020/12/08 03:34:24;;;;;;;;;;;;;;;19.14;39.93;99798.84;3134572;27;116191;-55
2020/12/08 03:35:55;;;;;;;;;;;;;;;19.13;39.59;99798.00;3137366;27;115624;-55
2020/12/08 03:37:27;;;;;;;;;;;;;;;19.14;39.77;99787.63;3133572;27;113946;-56
2020/12/08 03:38:58;;;;;;;;;;;;;;;19.13;39.72;99791.56;3133151;27;114000;-56
2020/12/08 03:40:29;;;;;;;;;;;;;;;19.12;39.61;99795.56;3134738;27;114394;-56
2020/12/08 03:42:04;;;;;;;;;;;;;;;19.09;39.95;99792.25;3133072;27;114181;-56
2020/12/08 03:43:35;;;;;;;;;;;;;;;19.09;39.75;99795.03;3127479;27;114739;-56
2020/12/08 03:45:07;;;;;;;;;;;;;;;19.08;39.97;99792.56;3134705;27;114107;-56
2020/12/08 03:46:38;;;;;;;;;;;;;;;19.07;39.82;99793.72;3134803;27;114189;-56
2020/12/08 03:48:09;;;;;;;;;;;;;;;19.06;39.71;99790.09;3119518;27;114283;-56
2020/12/08 03:49:40;;;;;;;;;;;;;;;19.04;39.81;99791.56;3117004;27;114196;-57
2020/12/08 03:51:12;;;;;;;;;;;;;;;19.03;39.81;99799.13;3129276;27;114186;-56
2020/12/08 03:52:43;;;;;;;;;;;;;;;19.03;39.80;99799.13;3133589;27;114224;-56
2020/12/08 03:54:14;;;;;;;;;;;;;;;19.03;39.80;99809.53;3120257;27;114092;-56
2020/12/08 03:55:45;;;;;;;;;;;;;;;19.02;39.75;99808.72;3129921;27;113944;-56
2020/12/08 03:57:17;;;;;;;;;;;;;;;19.00;39.75;99813.78;3117999;27;115099;-56
2020/12/08 03:58:48;;;;;;;;;;;;;;;19.00;39.84;99818.56;3129067;27;114047;-57
2020/12/08 04:00:19;;;;;;;;;;;;;;;18.98;39.89;99818.91;3132918;27;115455;-56
2020/12/08 04:01:50;;;;;;;;;;;;;;;18.97;39.93;99813.63;3133547;27;114485;-57
2020/12/08 04:03:21;;;;;;;;;;;;;;;18.95;39.94;99815.91;3120107;27;115703;-56
2020/12/08 04:04:52;;;;;;;;;;;;;;;18.94;39.91;99814.28;3126433;27;115272;-56
2020/12/08 04:06:24;;;;;;;;;;;;;;;18.93;39.81;99810.66;3134194;27;115317;-57
2020/12/08 04:07:55;;;;;;;;;;;;;;;18.94;39.90;99822.69;3133266;27;115712;-57
2020/12/08 04:09:26;;;;;;;;;;;;;;;18.91;39.88;99815.75;3133852;27;115446;-57
2020/12/08 04:10:58;;;;;;;;;;;;;;;18.90;39.88;99825.28;3134209;27;115128;-57
2020/12/08 04:12:29;;;;;;;;;;;;;;;18.91;39.84;99818.53;3119932;27;116035;-57
2020/12/08 04:14:01;;;;;;;;;;;;;;;18.90;39.86;99827.25;3127945;27;114226;-57
2020/12/08 04:15:32;;;;;;;;;;;;;;;18.88;39.92;99826.78;3134193;27;114212;-57
2020/12/08 04:17:03;;;;;;;;;;;;;;;18.86;39.88;99829.06;3120343;27;114466;-57
2020/12/08 04:18:35;;;;;;;;;;;;;;;18.85;39.93;99833.81;3128679;27;114216;-57
2020/12/08 04:20:06;;;;;;;;;;;;;;;18.85;40.09;99827.44;3125408;27;113852;-57
2020/12/08 04:21:37;;;;;;;;;;;;;;;18.83;39.90;99827.75;3129299;27;116167;-57
2020/12/08 04:23:12;;;;;;;;;;;;;;;18.81;40.02;99823.59;3121165;27;114695;-57
2020/12/08 04:24:43;;;;;;;;;;;;;;;18.79;40.13;99826.75;3129994;27;115909;-57
2020/12/08 04:26:14;;;;;;;;;;;;;;;18.79;40.15;99825.91;3131089;27;115777;-57
2020/12/08 04:27:45;;;;;;;;;;;;;;;18.77;40.12;99837.44;3122330;27;115243;-56
2020/12/08 04:29:17;;;;;;;;;;;;;;;18.77;40.04;99833.81;3130552;27;114918;-57
2020/12/08 04:30:48;;;;;;;;;;;;;;;18.75;40.17;99836.13;3135580;27;115390;-57
2020/12/08 04:32:19;;;;;;;;;;;;;;;18.74;40.15;99837.25;3136038;27;114622;-57
2020/12/08 04:33:58;;;;;;;;;;;;;;;18.73;40.18;99833.63;3135211;27;115326;-57
2020/12/08 04:35:41;;;;;;;;;;;;;;;18.73;40.25;99827.22;3136374;27;114793;-56
2020/12/08 04:37:12;;;;;;;;;;;;;;;18.73;40.18;99832.81;3122376;27;114828;-56
2020/12/08 04:38:44;;;;;;;;;;;;;;;18.70;40.27;99825.06;3130754;27;114821;-56
2020/12/08 04:40:15;;;;;;;;;;;;;;;18.70;40.26;99827.88;3122309;27;115915;-56
2020/12/08 04:41:46;;;;;;;;;;;;;;;18.68;40.17;99830.97;3129839;27;115765;-56
2020/12/08 04:43:18;;;;;;;;;;;;;;;18.66;40.28;99838.88;3133025;27;114391;-56
2020/12/08 04:44:49;;;;;;;;;;;;;;;18.64;40.46;99830.81;3122335;27;114647;-56
2020/12/08 04:46:21;;;;;;;;;;;;;;;18.65;40.29;99842.81;3131970;27;114752;-56
2020/12/08 04:47:52;;;;;;;;;;;;;;;18.63;40.30;99842.31;3135909;27;114183;-55
2020/12/08 04:49:24;;;;;;;;;;;;;;;18.63;40.33;99837.53;3135240;27;114342;-56
2020/12/08 04:51:00;;;;;;;;;;;;;;;18.62;40.54;99846.28;3134050;27;114087;-56
2020/12/08 04:52:31;;;;;;;;;;;;;;;18.61;40.42;99855.81;3121596;27;114590;-56
2020/12/08 04:54:03;;;;;;;;;;;;;;;18.60;40.58;99854.97;3131129;27;114296;-56
2020/12/08 04:55:34;;;;;;;;;;;;;;;18.59;40.57;99850.53;3135404;27;113974;-57
2020/12/08 04:57:05;;;;;;;;;;;;;;;18.59;40.50;99855.28;3135494;27;114401;-56
2020/12/08 04:58:36;;;;;;;;;;;;;;;18.59;40.64;99849.69;3133963;27;114367;-58
2020/12/08 05:00:09;;;;;;;;;;;;;;;18.58;40.61;99856.44;3135942;27;114056;-59
2020/12/08 05:01:42;;;;;;;;;;;;;;;18.60;40.72;99854.97;3136269;27;113954;-59
2020/12/08 05:03:13;;;;;;;;;;;;;;;18.60;41.11;99854.97;3138399;27;114518;-59
2020/12/08 05:04:53;;;;;;;;;;;;;;;18.64;40.98;99857.94;3135693;27;115046;-59
2020/12/08 05:06:25;;;;;;;;;;;;;;;18.69;40.74;99863.41;3133357;27;115343;-59
2020/12/08 05:07:56;;;;;;;;;;;;;;;18.72;40.84;99862.75;3135028;27;115315;-58
2020/12/08 05:09:27;;;;;;;;;;;;;;;18.73;40.88;99857.97;3128446;27;115468;-59
2020/12/08 05:11:07;;;;;;;;;;;;;;;18.77;41.04;99856.19;3129038;27;115085;-59
2020/12/08 05:12:38;;;;;;;;;;;;;;;18.81;41.17;99859.97;3130710;27;114720;-56
2020/12/08 05:14:09;;;;;;;;;;;;;;;18.85;41.26;99866.63;3121944;27;114429;-55
2020/12/08 05:15:40;;;;;;;;;;;;;;;18.88;41.21;99861.19;3125532;27;115272;-56
2020/12/08 05:17:12;;;;;;;;;;;;;;;18.93;41.44;99860.22;3135945;27;115112;-55
2020/12/08 05:18:43;;;;;;;;;;;;;;;18.96;41.54;99863.19;3121174;27;115407;-55
2020/12/08 05:20:16;;;;;;;;;;;;;;;19.01;41.59;99862.22;3130915;27;115038;-55
2020/12/08 05:21:48;;;;;;;;;;;;;;;19.05;41.28;99866.84;3135028;27;115729;-55
2020/12/08 05:23:19;;;;;;;;;;;;;;;19.10;41.49;99865.88;3134433;27;115061;-55
2020/12/08 05:24:51;;;;;;;;;;;;;;;19.15;41.41;99868.50;3139872;27;115409;-55
2020/12/08 05:26:22;;;;;;;;;;;;;;;19.18;41.19;99865.06;3135230;27;115123;-55
2020/12/08 05:27:54;;;;;;;;;;;;;;;19.23;41.27;99858.47;3135095;27;114766;-55
2020/12/08 05:29:26;;;;;;;;;;;;;;;19.27;41.32;99859.47;3134363;27;114804;-55
2020/12/08 05:30:58;;;;;;;;;;;;;;;19.31;41.10;99857.66;3135610;27;115810;-55
2020/12/08 05:32:34;;;;;;;;;;;;;;;19.35;40.88;99856.69;3134135;27;116108;-55
2020/12/08 05:34:05;;;;;;;;;;;;;;;19.39;40.86;99860.50;3134094;27;114783;-55
2020/12/08 05:35:38;;;;;;;;;;;;;;;19.42;40.72;99865.44;3127391;27;115888;-54
2020/12/08 05:37:17;;;;;;;;;;;;;;;19.47;40.80;99864.50;3134904;27;114540;-55
2020/12/08 05:38:50;;;;;;;;;;;;;;;19.50;40.58;99875.03;3120874;27;115539;-55
2020/12/08 05:40:22;;;;;;;;;;;;;;;19.54;40.31;99873.22;3131281;27;114645;-55
2020/12/08 05:41:59;;;;;;;;;;;;;;;19.58;40.48;99879.81;3135184;27;116006;-55
2020/12/08 05:43:38;;;;;;;;;;;;;;;19.61;40.20;99889.56;3132249;27;117144;-55
2020/12/08 05:45:10;;;;;;;;;;;;;;;19.66;40.14;99889.41;3134312;27;114774;-55
2020/12/08 05:46:42;;;;;;;;;;;;;;;19.68;39.99;99882.28;3122010;27;115963;-54
2020/12/08 05:48:20;;;;;;;;;;;;;;;19.72;39.92;99891.69;3133016;27;114563;-59
2020/12/08 05:50:00;;;;;;;;;;;;;;;19.75;39.91;99896.66;3135980;27;114306;-58
2020/12/08 05:51:38;;;;;;;;;;;;;;;19.79;39.90;99885.63;3134936;27;114473;-58
2020/12/08 05:53:10;;;;;;;;;;;;;;;19.81;40.00;99886.91;3134496;27;113743;-58
2020/12/08 05:54:41;;;;;;;;;;;;;;;19.85;39.72;99895.53;3136337;27;114243;-58
2020/12/08 05:56:13;;;;;;;;;;;;;;;19.88;39.59;99892.88;3134787;27;113969;-58
2020/12/08 05:57:44;;;;;;;;;;;;;;;19.91;39.52;99894.19;3134407;27;114530;-58
2020/12/08 05:59:27;;;;;;;;;;;;;;;19.93;39.76;99901.13;3120297;27;114377;-58
2020/12/08 06:01:17;;;;;;;;;;;;;;;19.96;39.69;99892.03;3132919;27;114073;-59
2020/12/08 06:02:48;;;;;;;;;;;;;;;19.99;39.66;99898.94;3135300;27;114561;-59
2020/12/08 06:04:19;;;;;;;;;;;;;;;20.03;39.83;99899.13;3134234;27;114491;-59
2020/12/08 06:05:51;;;;;;;;;;;;;;;20.05;39.45;99905.22;3121573;27;115038;-59
2020/12/08 06:07:26;;;;;;;;;;;;;;;20.08;39.32;99913.00;3130488;27;113963;-59
2020/12/08 06:08:57;;;;;;;;;;;;;;;20.10;39.52;99905.88;3134211;27;114246;-58
2020/12/08 06:10:28;;;;;;;;;;;;;;;20.13;39.44;99916.44;3138755;27;114081;-59
2020/12/08 06:12:03;;;;;;;;;;;;;;;20.16;39.40;99909.34;3120432;27;114223;-59
2020/12/08 06:13:34;;;;;;;;;;;;;;;20.18;39.62;99909.81;3118617;27;114983;-58
2020/12/08 06:15:15;;;;;;;;;;;;;;;20.20;39.31;99911.16;3134591;27;114557;-58
2020/12/08 06:16:46;;;;;;;;;;;;;;;20.23;39.43;99913.28;3134780;27;114675;-59
2020/12/08 06:18:27;;;;;;;;;;;;;;;20.25;39.19;99910.16;3134405;27;115665;-58
2020/12/08 06:19:58;;;;;;;;;;;;;;;20.29;39.34;99913.97;3131677;27;114505;-59
2020/12/08 06:21:29;;;;;;;;;;;;;;;20.30;39.19;99910.88;3133414;27;114631;-59
2020/12/08 06:23:01;;;;;;;;;;;;;;;20.34;39.15;99916.63;3118843;27;114370;-58
2020/12/08 06:24:32;;;;;;;;;;;;;;;20.34;39.19;99914.66;3121383;27;114697;-59
2020/12/08 06:26:03;;;;;;;;;;;;;;;20.37;38.98;99915.94;3131201;27;114359;-56
2020/12/08 06:27:34;;;;;;;;;;;;;;;20.39;39.11;99922.91;3132549;27;115624;-56
2020/12/08 06:29:09;;;;;;;;;;;;;;;20.41;38.90;99922.53;3134325;27;115612;-55
2020/12/08 06:30:41;;;;;;;;;;;;;;;20.43;39.14;99917.44;3122098;27;115052;-56
2020/12/08 06:32:21;;;;;;;;;;;;;;;20.45;39.13;99920.72;3134672;27;116231;-55
2020/12/08 06:33:56;;;;;;;;;;;;;;;20.47;39.01;99926.00;3134221;27;117171;-55
2020/12/08 06:35:31;;;;;;;;;;;;;;;20.49;39.01;99924.50;3134724;27;115688;-55
2020/12/08 06:37:18;;;;;;;;;;;;;;;20.52;38.71;99923.84;3134554;27;114913;-56
2020/12/08 06:39:08;;;;;;;;;;;;;;;20.53;39.04;99925.50;3133764;27;115736;-55
2020/12/08 06:40:49;;;;;;;;;;;;;;;20.56;38.70;99918.41;3130891;27;115964;-56
2020/12/08 06:42:21;;;;;;;;;;;;;;;20.58;38.63;99921.69;3129531;27;114730;-56
2020/12/08 06:43:52;;;;;;;;;;;;;;;20.60;38.90;99924.97;3133299;27;115530;-55
2020/12/08 06:45:24;;;;;;;;;;;;;;;20.62;38.96;99915.09;3134373;27;115749;-55
2020/12/08 06:46:58;;;;;;;;;;;;;;;20.63;38.77;99922.31;3135065;27;114748;-54
2020/12/08 06:48:29;;;;;;;;;;;;;;;20.65;38.83;99928.44;3133967;27;116383;-56
2020/12/08 06:50:00;;;;;;;;;;;;;;;20.68;38.66;99929.75;3134521;27;115916;-56
2020/12/08 06:51:33;;;;;;;;;;;;;;;20.69;38.66;99921.00;3134520;27;115897;-56
2020/12/08 06:53:04;;;;;;;;;;;;;;;20.70;38.62;99924.63;3133657;27;115235;-56
2020/12/08 06:54:35;;;;;;;;;;;;;;;20.73;38.63;99938.00;3137884;27;114669;-56
2020/12/08 06:56:06;;;;;;;;;;;;;;;20.73;38.76;99936.00;3125925;27;114360;-56
2020/12/08 06:57:37;;;;;;;;;;;;;;;20.74;38.64;99934.84;3129630;27;114477;-56
2020/12/08 06:59:09;;;;;;;;;;;;;;;20.77;38.48;99941.78;3133835;27;113809;-58
2020/12/08 07:00:41;;;;;;;;;;;;;;;20.78;38.51;99949.03;3132761;27;114586;-59
2020/12/08 07:02:12;;;;;;;;;;;;;;;20.80;38.75;99949.53;3134631;27;114238;-59
2020/12/08 07:03:44;;;;;;;;;;;;;;;20.81;38.83;99949.19;3134063;27;114289;-59
2020/12/08 07:05:20;;;;;;;;;;;;;;;20.83;38.78;99946.06;3109661;27;114027;-60
2020/12/08 07:06:51;;;;;;;;;;;;;;;20.86;38.56;99948.19;3131297;27;114796;-59
2020/12/08 07:08:24;;;;;;;;;;;;;;;20.88;39.00;99950.66;3134103;27;114450;-60
2020/12/08 07:09:55;;;;;;;;;;;;;;;20.89;38.92;99953.16;3134462;27;114247;-60
2020/12/08 07:11:26;;;;;;;;;;;;;;;20.91;38.45;99958.41;3134163;27;114642;-60
2020/12/08 07:12:58;;;;;;;;;;;;;;;20.93;38.46;99956.94;3129268;27;114097;-60
2020/12/08 07:14:29;;;;;;;;;;;;;;;20.93;38.59;99956.94;3134500;27;113653;-60
2020/12/08 07:16:00;;;;;;;;;;;;;;;20.95;38.78;99962.19;3133995;27;114172;-60
2020/12/08 07:17:32;;;;;;;;;;;;;;;20.97;38.63;99976.75;3139079;27;113822;-60
2020/12/08 07:19:05;;;;;;;;;;;;;;;20.98;38.59;99969.97;3134358;27;116421;-60
2020/12/08 07:20:38;;;;;;;;;;;;;;;21.00;38.39;99964.81;3134729;27;115079;-56
2020/12/08 07:22:10;;;;;;;;;;;;;;;21.01;38.42;99970.13;3128702;27;114430;-54
2020/12/08 07:23:41;;;;;;;;;;;;;;;21.03;38.61;99969.78;3134503;27;115948;-54
2020/12/08 07:25:13;;;;;;;;;;;;;;;21.04;38.44;99966.63;3135363;27;115686;-55
2020/12/08 07:26:46;;;;;;;;;;;;;;;21.05;38.54;99962.66;3134008;27;114485;-55
2020/12/08 07:28:18;;;;;;;;;;;;;;;21.06;38.53;99971.91;3132040;27;115452;-55
2020/12/08 07:29:49;;;;;;;;;;;;;;;21.08;38.48;99973.22;3135537;27;115340;-57
2020/12/08 07:31:21;;;;;;;;;;;;;;;21.10;38.81;99973.72;3119132;27;114080;-57
2020/12/08 07:32:53;;;;;;;;;;;;;;;21.11;38.72;99977.34;3130506;27;116040;-57
2020/12/08 07:34:40;;;;;;;;;;;;;;;21.11;38.48;99986.59;3134381;27;115001;-57
2020/12/08 07:36:26;;;;;;;;;;;;;;;21.13;38.51;99991.91;3133684;27;116302;-57
2020/12/08 07:37:58;;;;;;;;;;;;;;;21.15;38.30;99982.00;3134161;27;114395;-57
2020/12/08 07:39:30;;;;;;;;;;;;;;;21.15;38.46;99990.44;3138143;27;114328;-56
2020/12/08 07:41:01;;;;;;;;;;;;;;;21.18;38.21;99992.56;3134830;27;114651;-56
2020/12/08 07:42:32;;;;;;;;;;;;;;;21.18;38.04;99997.34;3120381;27;114381;-56
2020/12/08 07:44:10;;;;;;;;;;;;;;;21.20;38.16;99995.88;3119608;27;116062;-56
2020/12/08 07:45:43;;;;;;;;;;;;;;;21.23;38.15;100005.59;3127480;27;114758;-56
2020/12/08 07:47:14;;;;;;;;;;;;;;;21.27;38.15;100013.00;3131998;27;115897;-57
2020/12/08 07:48:45;;;;;;;;;;;;;;;21.28;38.13;100017.47;3131123;27;114664;-57
2020/12/08 07:50:24;;;;;;;;;;;;;;;21.28;38.17;100017.47;3118390;27;115094;-57
2020/12/08 07:51:55;;;;;;;;;;;;;;;21.32;37.79;100013.97;3126331;27;114701;-57
2020/12/08 07:53:43;;;;;;;;;;;;;;;21.32;38.06;100016.78;3134967;27;114621;-56
2020/12/08 07:55:25;;;;;;;;;;;;;;;21.24;37.89;100024.09;3134151;27;114716;-64